createdAt,value
2023-01-29T00:02:09.514Z,0.60
2023-01-29T00:04:36.486Z,0.60
2023-01-29T00:07:03.291Z,0.60
2023-01-29T00:09:31.417Z,0.70
2023-01-29T00:11:58.300Z,0.60
2023-01-29T00:14:26.366Z,0.60
2023-01-29T00:16:53.421Z,0.60
2023-01-29T00:19:20.323Z,0.70
2023-01-29T00:21:47.170Z,0.60
2023-01-29T00:24:13.944Z,0.60
2023-01-29T00:26:42.416Z,0.60
2023-01-29T00:29:09.244Z,0.60
2023-01-29T00:31:36.210Z,0.70
2023-01-29T00:34:03.554Z,0.60
2023-01-29T00:36:30.388Z,0.60
2023-01-29T00:38:59.219Z,0.60
2023-01-29T00:41:49.902Z,0.60
2023-01-29T00:44:35.682Z,0.60
2023-01-29T00:47:04.294Z,0.60
2023-01-29T00:49:31.308Z,0.50
2023-01-29T00:52:16.211Z,0.50
2023-01-29T00:54:42.917Z,0.60
2023-01-29T00:57:09.871Z,0.60
2023-01-29T00:59:36.686Z,0.60
2023-01-29T01:02:22.512Z,0.70
2023-01-29T01:04:49.306Z,0.60
2023-01-29T01:07:16.171Z,0.60
2023-01-29T01:10:01.215Z,0.50
2023-01-29T01:12:28.538Z,0.50
2023-01-29T01:14:55.334Z,0.50
2023-01-29T01:17:22.238Z,0.50
2023-01-29T01:19:49.327Z,0.50
2023-01-29T01:22:16.718Z,0.50
2023-01-29T01:24:43.484Z,0.50
2023-01-29T01:27:10.264Z,0.50
2023-01-29T01:29:37.017Z,0.60
2023-01-29T01:32:03.996Z,0.50
2023-01-29T01:34:30.789Z,0.60
2023-01-29T01:36:57.797Z,0.60
2023-01-29T01:39:25.538Z,0.60
2023-01-29T01:41:56.229Z,0.60
2023-01-29T01:44:52.637Z,0.60
2023-01-29T01:47:30.967Z,0.60
2023-01-29T01:50:02.690Z,0.60
2023-01-29T01:52:31.856Z,0.50
2023-01-29T01:55:00.199Z,0.60
2023-01-29T01:57:28.684Z,0.60
2023-01-29T02:00:00.647Z,0.60
2023-01-29T02:02:46.679Z,0.50
2023-01-29T02:05:32.949Z,0.50
2023-01-29T02:08:18.460Z,0.60
2023-01-29T02:10:47.589Z,0.50
2023-01-29T02:13:18.598Z,0.50
2023-01-29T02:15:48.631Z,0.50
2023-01-29T02:18:17.770Z,0.60
2023-01-29T02:21:00.874Z,0.60
2023-01-29T02:23:56.738Z,0.60
2023-01-29T02:26:44.843Z,0.50
2023-01-29T02:29:27.187Z,0.50
2023-01-29T02:32:28.977Z,0.60
2023-01-29T02:35:32.767Z,0.60
2023-01-29T02:38:27.327Z,0.60
2023-01-29T02:41:22.418Z,0.50
2023-01-29T02:44:01.418Z,0.60
2023-01-29T02:46:47.665Z,0.60
2023-01-29T02:49:51.738Z,0.60
2023-01-29T02:52:25.375Z,0.50
2023-01-29T02:55:02.830Z,0.50
2023-01-29T02:57:36.123Z,0.50
2023-01-29T03:00:09.214Z,0.60
2023-01-29T03:02:48.825Z,0.60
2023-01-29T03:05:30.996Z,0.60
2023-01-29T03:08:04.491Z,0.60
2023-01-29T03:10:45.833Z,0.50
2023-01-29T03:13:34.297Z,0.50
2023-01-29T03:16:09.912Z,0.50
2023-01-29T03:18:57.586Z,0.50
2023-01-29T03:21:55.113Z,0.50
2023-01-29T03:24:57.500Z,0.50
2023-01-29T03:27:50.112Z,0.50
2023-01-29T03:30:36.885Z,0.50
2023-01-29T03:33:07.890Z,0.50
2023-01-29T03:35:58.544Z,0.50
2023-01-29T03:38:29.601Z,0.50
2023-01-29T03:41:01.132Z,0.50
2023-01-29T03:43:51.060Z,0.50
2023-01-29T03:46:36.984Z,0.50
2023-01-29T03:49:22.099Z,0.50
2023-01-29T03:52:13.945Z,0.50
2023-01-29T03:54:49.546Z,0.50
2023-01-29T03:57:41.178Z,0.50
2023-01-29T04:00:16.042Z,0.50
2023-01-29T04:03:17.117Z,0.50
2023-01-29T04:05:50.248Z,0.50
2023-01-29T04:08:26.063Z,0.50
2023-01-29T04:10:54.756Z,0.50
2023-01-29T04:13:23.383Z,0.50
2023-01-29T04:15:56.883Z,0.50
2023-01-29T04:18:26.613Z,0.50
2023-01-29T04:20:53.998Z,0.50
2023-01-29T04:23:26.244Z,0.50
2023-01-29T04:25:59.250Z,0.50
2023-01-29T04:28:42.912Z,0.40
2023-01-29T04:31:12.215Z,0.40
2023-01-29T04:33:58.896Z,0.40
2023-01-29T04:36:25.802Z,0.40
2023-01-29T04:39:26.555Z,0.40
2023-01-29T04:41:55.432Z,0.40
2023-01-29T04:44:44.884Z,0.40
2023-01-29T04:47:29.849Z,0.40
2023-01-29T04:50:06.163Z,0.40
2023-01-29T04:52:39.209Z,0.30
2023-01-29T04:55:32.813Z,0.30
2023-01-29T04:58:18.043Z,0.30
2023-01-29T05:00:47.307Z,0.30
2023-01-29T05:03:16.228Z,0.30
2023-01-29T05:05:46.436Z,0.30
2023-01-29T05:08:16.242Z,0.30
2023-01-29T05:10:43.286Z,0.30
2023-01-29T05:13:13.566Z,0.30
2023-01-29T05:15:45.368Z,0.30
2023-01-29T05:18:12.543Z,0.30
2023-01-29T05:20:43.013Z,0.30
2023-01-29T05:23:21.856Z,0.40
2023-01-29T05:25:50.758Z,0.40
2023-01-29T05:28:17.896Z,0.40
2023-01-29T05:30:47.652Z,0.40
2023-01-29T05:33:29.591Z,0.50
2023-01-29T05:35:58.289Z,0.50
2023-01-29T05:38:25.645Z,0.50
2023-01-29T05:40:52.595Z,0.60
2023-01-29T05:43:24.461Z,0.60
2023-01-29T05:45:59.474Z,0.60
2023-01-29T05:48:29.013Z,0.60
2023-01-29T05:51:03.976Z,0.60
2023-01-29T05:53:31.303Z,0.80
2023-01-29T05:56:01.479Z,0.80
2023-01-29T05:58:29.953Z,0.70
2023-01-29T06:00:56.854Z,0.60
2023-01-29T06:03:23.597Z,0.70
2023-01-29T06:05:50.433Z,0.60
2023-01-29T06:08:17.250Z,0.80
2023-01-29T06:10:43.968Z,0.60
2023-01-29T06:13:10.854Z,0.60
2023-01-29T06:15:40.037Z,0.60
2023-01-29T06:18:06.826Z,0.60
2023-01-29T06:20:33.569Z,0.60
2023-01-29T06:23:00.476Z,0.60
2023-01-29T06:25:27.245Z,0.60
2023-01-29T06:27:53.962Z,0.60
2023-01-29T06:30:20.740Z,0.60
2023-01-29T06:32:47.523Z,0.60
2023-01-29T06:35:14.585Z,0.60
2023-01-29T06:37:41.404Z,0.60
2023-01-29T06:40:09.066Z,0.60
2023-01-29T06:42:36.064Z,0.60
2023-01-29T06:45:02.938Z,0.70
2023-01-29T06:47:29.756Z,0.80
2023-01-29T06:49:56.530Z,0.60
2023-01-29T06:52:23.356Z,0.60
2023-01-29T06:54:50.088Z,0.50
2023-01-29T06:57:16.857Z,0.60
2023-01-29T06:59:43.590Z,0.60
2023-01-29T07:02:10.776Z,0.60
2023-01-29T07:04:37.887Z,0.50
2023-01-29T07:07:05.120Z,0.50
2023-01-29T07:09:32.067Z,0.40
2023-01-29T07:11:58.845Z,0.40
2023-01-29T07:14:25.588Z,0.40
2023-01-29T07:16:52.353Z,0.40
2023-01-29T07:19:19.146Z,0.40
2023-01-29T07:21:46.024Z,0.40
2023-01-29T07:24:12.986Z,0.40
2023-01-29T07:26:39.976Z,0.30
2023-01-29T07:29:06.812Z,0.40
2023-01-29T07:31:33.980Z,0.30
2023-01-29T07:34:00.866Z,0.30
2023-01-29T07:36:28.459Z,0.20
2023-01-29T07:38:55.437Z,0.20
2023-01-29T07:41:22.432Z,0.20
2023-01-29T07:43:49.279Z,0.20
2023-01-29T07:46:16.239Z,0.30
2023-01-29T07:48:43.024Z,0.20
2023-01-29T07:51:09.820Z,0.20
2023-01-29T07:53:37.075Z,0.20
2023-01-29T07:56:04.219Z,0.20
2023-01-29T07:58:31.096Z,0.20
2023-01-29T08:00:57.938Z,0.20
2023-01-29T08:03:24.822Z,0.20
2023-01-29T08:05:51.765Z,0.30
2023-01-29T08:08:19.448Z,0.30
2023-01-29T08:10:46.319Z,0.30
2023-01-29T08:13:13.163Z,0.30
2023-01-29T08:15:44.064Z,0.50
2023-01-29T08:18:10.893Z,0.40
2023-01-29T08:20:45.840Z,0.40
2023-01-29T08:23:16.312Z,0.50
2023-01-29T08:25:43.243Z,0.50
2023-01-29T08:28:11.742Z,0.50
2023-01-29T08:30:39.091Z,0.40
2023-01-29T08:33:06.094Z,0.40
2023-01-29T08:35:33.014Z,0.40
2023-01-29T08:38:03.342Z,0.50
2023-01-29T08:40:32.994Z,0.50
2023-01-29T08:43:02.248Z,0.30
2023-01-29T08:45:30.736Z,0.50
2023-01-29T08:47:57.806Z,0.50
2023-01-29T08:50:24.770Z,0.50
2023-01-29T08:52:52.175Z,0.50
2023-01-29T08:55:19.293Z,0.50
2023-01-29T08:57:46.282Z,0.50
2023-01-29T09:00:13.784Z,0.60
2023-01-29T09:02:40.601Z,0.60
2023-01-29T09:05:08.370Z,0.60
2023-01-29T09:07:35.139Z,0.60
2023-01-29T09:10:02.294Z,0.60
2023-01-29T09:12:29.041Z,0.60
2023-01-29T09:14:57.012Z,0.60
2023-01-29T09:17:24.177Z,0.60
2023-01-29T09:19:53.031Z,0.60
2023-01-29T09:22:20.575Z,0.60
2023-01-29T09:24:47.399Z,0.70
2023-01-29T09:27:14.266Z,0.70
2023-01-29T09:29:41.119Z,0.60
2023-01-29T09:32:08.102Z,0.70
2023-01-29T09:34:35.273Z,0.80
2023-01-29T09:37:02.079Z,0.80
2023-01-29T09:39:28.824Z,0.80
2023-01-29T09:42:15.130Z,0.90
2023-01-29T09:45:00.334Z,0.80
2023-01-29T09:47:27.965Z,0.80
2023-01-29T09:50:01.767Z,0.80
2023-01-29T09:52:38.740Z,1.00
2023-01-29T09:55:26.606Z,0.90
2023-01-29T09:58:03.680Z,0.90
2023-01-29T10:00:34.402Z,1.00
2023-01-29T10:03:22.385Z,1.00
2023-01-29T10:05:55.067Z,1.10
2023-01-29T10:08:33.746Z,1.00
2023-01-29T10:11:24.414Z,1.00
2023-01-29T10:14:20.553Z,1.10
2023-01-29T10:17:17.842Z,1.10
2023-01-29T10:20:14.198Z,1.10
2023-01-29T10:23:00.525Z,1.10
2023-01-29T10:25:27.803Z,1.20
2023-01-29T10:27:58.140Z,1.20
2023-01-29T10:30:49.436Z,1.20
2023-01-29T10:33:54.231Z,1.30
2023-01-29T10:36:38.564Z,1.20
2023-01-29T10:39:05.463Z,1.20
2023-01-29T10:41:41.843Z,1.20
2023-01-29T10:44:28.852Z,1.20
2023-01-29T10:47:07.618Z,1.40
2023-01-29T10:49:40.607Z,1.30
2023-01-29T10:52:29.525Z,1.30
2023-01-29T10:54:56.262Z,1.30
2023-01-29T10:57:44.845Z,1.40
2023-01-29T11:00:22.347Z,1.30
2023-01-29T11:02:50.946Z,1.40
2023-01-29T11:05:43.866Z,1.40
2023-01-29T11:08:21.138Z,1.40
2023-01-29T11:11:13.503Z,1.40
2023-01-29T11:13:49.353Z,1.50
2023-01-29T11:16:16.237Z,1.50
2023-01-29T11:18:59.735Z,1.50
2023-01-29T11:21:28.067Z,1.50
2023-01-29T11:24:17.602Z,1.50
2023-01-29T11:26:48.004Z,1.50
2023-01-29T11:29:44.929Z,1.50
2023-01-29T11:32:32.790Z,1.60
2023-01-29T11:35:21.304Z,1.60
2023-01-29T11:37:48.638Z,1.60
2023-01-29T11:40:35.657Z,1.70
2023-01-29T11:43:21.464Z,1.70
2023-01-29T11:45:54.825Z,1.70
2023-01-29T11:48:25.606Z,1.80
2023-01-29T11:50:56.312Z,1.80
2023-01-29T11:53:33.818Z,1.80
2023-01-29T11:56:01.592Z,1.80
2023-01-29T11:58:32.867Z,1.80
2023-01-29T12:01:00.920Z,1.80
2023-01-29T12:03:48.968Z,1.90
2023-01-29T12:06:20.991Z,1.90
2023-01-29T12:08:56.127Z,1.90
2023-01-29T12:11:28.171Z,1.90
2023-01-29T12:13:57.385Z,1.90
2023-01-29T12:16:28.007Z,1.90
2023-01-29T12:18:56.955Z,1.90
2023-01-29T12:21:29.173Z,2.00
2023-01-29T12:24:40.440Z,2.00
2023-01-29T12:27:45.426Z,2.10
2023-01-29T12:30:21.380Z,2.10
2023-01-29T12:33:13.963Z,2.10
2023-01-29T12:36:04.063Z,2.10
2023-01-29T12:38:31.081Z,2.10
2023-01-29T12:41:07.845Z,2.10
2023-01-29T12:43:49.620Z,2.10
2023-01-29T12:46:28.018Z,2.10
2023-01-29T12:48:59.592Z,2.10
2023-01-29T12:51:33.822Z,2.10
2023-01-29T12:54:09.506Z,2.10
2023-01-29T12:56:41.123Z,2.30
2023-01-29T12:59:29.095Z,2.20
2023-01-29T13:02:05.985Z,2.20
2023-01-29T13:04:57.953Z,2.20
2023-01-29T13:07:41.209Z,2.20
2023-01-29T13:10:13.814Z,2.10
2023-01-29T13:12:50.636Z,2.20
2023-01-29T13:15:35.978Z,2.20
2023-01-29T13:18:12.281Z,2.40
2023-01-29T13:20:39.608Z,2.30
2023-01-29T13:23:28.802Z,2.30
2023-01-29T13:25:55.849Z,2.40
2023-01-29T13:28:26.688Z,2.40
2023-01-29T13:31:21.515Z,2.40
2023-01-29T13:34:02.027Z,2.60
2023-01-29T13:36:30.947Z,2.60
2023-01-29T13:39:16.143Z,2.50
2023-01-29T13:41:43.713Z,2.50
2023-01-29T13:44:49.408Z,2.50
2023-01-29T13:47:28.398Z,2.50
2023-01-29T13:50:02.538Z,2.40
2023-01-29T13:52:44.677Z,2.40
2023-01-29T13:55:14.787Z,2.30
2023-01-29T13:57:44.828Z,2.30
2023-01-29T14:00:20.525Z,2.30
2023-01-29T14:03:05.503Z,2.30
2023-01-29T14:05:33.712Z,2.20
2023-01-29T14:08:00.439Z,2.20
2023-01-29T14:10:29.848Z,2.30
2023-01-29T14:13:23.772Z,2.20
2023-01-29T14:15:59.635Z,2.30
2023-01-29T14:18:28.380Z,2.30
2023-01-29T14:21:05.815Z,2.30
2023-01-29T14:23:43.066Z,2.30
2023-01-29T14:26:27.522Z,2.30
2023-01-29T14:28:58.666Z,2.30
2023-01-29T14:31:41.339Z,2.20
2023-01-29T14:34:20.699Z,2.30
2023-01-29T14:36:55.209Z,2.30
2023-01-29T14:39:36.954Z,2.30
2023-01-29T14:42:14.859Z,2.30
2023-01-29T14:44:44.718Z,2.20
2023-01-29T14:47:50.238Z,2.30
2023-01-29T14:50:29.105Z,2.20
2023-01-29T14:53:11.081Z,2.30
2023-01-29T14:56:00.099Z,2.20
2023-01-29T14:58:51.955Z,2.20
2023-01-29T15:01:38.283Z,2.20
2023-01-29T15:04:14.276Z,2.20
2023-01-29T15:06:45.928Z,2.20
2023-01-29T15:09:32.749Z,2.20
2023-01-29T15:12:14.600Z,2.20
2023-01-29T15:14:57.467Z,2.10
2023-01-29T15:17:43.466Z,2.10
2023-01-29T15:20:28.501Z,2.10
2023-01-29T15:22:55.751Z,2.10
2023-01-29T15:25:23.045Z,2.10
2023-01-29T15:27:50.316Z,2.00
2023-01-29T15:30:20.590Z,2.10
2023-01-29T15:32:49.049Z,2.00
2023-01-29T15:35:24.028Z,2.00
2023-01-29T15:38:26.906Z,2.00
2023-01-29T15:41:01.492Z,2.00
2023-01-29T15:43:36.125Z,2.00
2023-01-29T15:46:37.091Z,1.90
2023-01-29T15:49:17.967Z,1.90
2023-01-29T15:51:46.640Z,1.90
2023-01-29T15:54:17.974Z,1.90
2023-01-29T15:56:48.640Z,1.90
2023-01-29T15:59:19.332Z,1.90
2023-01-29T16:01:46.582Z,1.90
2023-01-29T16:04:21.008Z,1.90
2023-01-29T16:06:49.896Z,1.90
2023-01-29T16:09:20.596Z,1.80
2023-01-29T16:11:48.339Z,1.90
2023-01-29T16:14:19.160Z,1.80
2023-01-29T16:16:48.518Z,1.80
2023-01-29T16:19:25.744Z,1.80
2023-01-29T16:22:00.062Z,1.80
2023-01-29T16:24:28.197Z,1.80
2023-01-29T16:27:01.044Z,1.80
2023-01-29T16:29:33.413Z,1.80
2023-01-29T16:32:02.761Z,1.90
2023-01-29T16:34:32.623Z,1.80
2023-01-29T16:37:01.954Z,1.80
2023-01-29T16:39:34.275Z,1.80
2023-01-29T16:42:10.747Z,1.80
2023-01-29T16:44:40.018Z,1.80
2023-01-29T16:47:20.612Z,1.80
2023-01-29T16:49:53.711Z,1.80
2023-01-29T16:52:55.159Z,1.70
2023-01-29T16:55:25.474Z,1.80
2023-01-29T16:57:56.074Z,1.70
2023-01-29T17:00:32.188Z,1.80
2023-01-29T17:03:06.492Z,1.70
2023-01-29T17:05:36.935Z,1.80
2023-01-29T17:08:07.176Z,1.80
2023-01-29T17:10:35.997Z,1.80
2023-01-29T17:13:08.547Z,1.70
2023-01-29T17:15:46.839Z,1.80
2023-01-29T17:18:25.092Z,1.80
2023-01-29T17:20:55.396Z,1.70
2023-01-29T17:23:23.225Z,1.80
2023-01-29T17:25:50.252Z,1.80
2023-01-29T17:28:18.471Z,1.80
2023-01-29T17:30:56.623Z,1.80
2023-01-29T17:33:32.058Z,1.80
2023-01-29T17:35:58.874Z,1.80
2023-01-29T17:38:26.867Z,1.90
2023-01-29T17:41:07.178Z,1.70
2023-01-29T17:43:34.790Z,1.80
2023-01-29T17:46:01.712Z,1.80
2023-01-29T17:48:31.265Z,1.80
2023-01-29T17:51:02.907Z,1.80
2023-01-29T17:53:44.146Z,1.70
2023-01-29T17:56:16.189Z,1.70
2023-01-29T17:58:43.227Z,1.60
2023-01-29T18:01:10.050Z,1.50
2023-01-29T18:03:37.029Z,1.50
2023-01-29T18:06:06.643Z,1.50
2023-01-29T18:08:35.899Z,1.50
2023-01-29T18:11:02.789Z,1.50
2023-01-29T18:13:29.848Z,1.50
2023-01-29T18:15:56.767Z,1.40
2023-01-29T18:18:24.873Z,1.40
2023-01-29T18:20:51.780Z,1.40
2023-01-29T18:23:18.701Z,1.40
2023-01-29T18:25:45.928Z,1.40
2023-01-29T18:28:17.692Z,1.40
2023-01-29T18:30:47.856Z,1.30
2023-01-29T18:33:19.204Z,1.40
2023-01-29T18:35:48.178Z,1.30
2023-01-29T18:38:15.650Z,1.30
2023-01-29T18:40:42.637Z,1.20
2023-01-29T18:43:09.903Z,1.30
2023-01-29T18:45:36.854Z,1.20
2023-01-29T18:48:03.752Z,1.40
2023-01-29T18:50:30.738Z,1.20
2023-01-29T18:52:57.708Z,1.30
2023-01-29T18:55:26.614Z,1.30
2023-01-29T18:58:26.488Z,1.30
2023-01-29T19:00:41.977Z,1.30
2023-01-29T19:03:09.655Z,1.30
2023-01-29T19:05:36.529Z,1.30
2023-01-29T19:08:05.265Z,1.40
2023-01-29T19:10:32.967Z,1.40
2023-01-29T19:13:00.153Z,1.40
2023-01-29T19:15:27.144Z,1.40
2023-01-29T19:17:54.195Z,1.40
2023-01-29T19:20:21.169Z,1.40
2023-01-29T19:22:48.671Z,1.40
2023-01-29T19:25:16.863Z,1.50
2023-01-29T19:27:44.240Z,1.40
2023-01-29T19:30:13.183Z,1.40
2023-01-29T19:32:40.711Z,1.40
2023-01-29T19:35:08.156Z,1.40
2023-01-29T19:37:35.270Z,1.30
2023-01-29T19:40:02.449Z,1.40
2023-01-29T19:42:29.593Z,1.30
2023-01-29T19:44:56.860Z,1.30
2023-01-29T19:47:23.841Z,1.40
2023-01-29T19:49:50.737Z,1.30
2023-01-29T19:52:49.900Z,1.30
2023-01-29T19:55:18.776Z,1.40
2023-01-29T19:57:46.656Z,1.40
2023-01-29T20:00:15.647Z,1.40
2023-01-29T20:02:42.860Z,1.40
2023-01-29T20:05:12.210Z,1.40
2023-01-29T20:07:41.336Z,1.40
2023-01-29T20:10:11.679Z,1.40
2023-01-29T20:12:39.272Z,1.40
2023-01-29T20:15:07.790Z,1.40
2023-01-29T20:17:35.116Z,1.40
2023-01-29T20:20:02.828Z,1.40
2023-01-29T20:22:30.189Z,1.40
2023-01-29T20:24:57.797Z,1.50
2023-01-29T20:27:24.968Z,1.40
2023-01-29T20:29:52.827Z,1.50
2023-01-29T20:32:20.333Z,1.60
2023-01-29T20:34:52.211Z,1.50
2023-01-29T20:37:19.867Z,1.80
2023-01-29T20:39:47.435Z,1.60
2023-01-29T20:42:15.175Z,1.60
2023-01-29T20:44:42.104Z,1.70
2023-01-29T20:47:09.260Z,1.70
2023-01-29T20:49:36.734Z,1.70
2023-01-29T20:52:03.547Z,1.70
2023-01-29T20:54:33.285Z,1.70
2023-01-29T20:57:00.439Z,1.80
2023-01-29T20:59:28.948Z,1.80
2023-01-29T21:01:56.226Z,1.80
2023-01-29T21:04:23.478Z,1.90
2023-01-29T21:06:50.434Z,1.80
2023-01-29T21:09:17.383Z,1.80
2023-01-29T21:11:45.285Z,1.80
2023-01-29T21:14:12.553Z,1.90
2023-01-29T21:16:39.939Z,1.90
2023-01-29T21:19:06.782Z,1.90
2023-01-29T21:21:34.805Z,1.90
2023-01-29T21:24:01.824Z,2.00
2023-01-29T21:26:29.129Z,2.00
2023-01-29T21:28:57.207Z,2.00
2023-01-29T21:31:24.221Z,2.10
2023-01-29T21:33:51.170Z,2.10
2023-01-29T21:36:18.399Z,2.00
2023-01-29T21:38:45.273Z,2.10
2023-01-29T21:41:12.388Z,2.10
2023-01-29T21:43:39.328Z,2.20
2023-01-29T21:46:14.160Z,2.20
2023-01-29T21:48:40.943Z,2.20
2023-01-29T21:51:08.243Z,2.30
2023-01-29T21:53:36.694Z,2.20
2023-01-29T21:56:05.424Z,2.30
2023-01-29T21:58:32.341Z,2.30
2023-01-29T22:01:17.986Z,2.30
2023-01-29T22:03:47.493Z,2.20
2023-01-29T22:06:15.303Z,2.30
2023-01-29T22:08:42.147Z,2.30
2023-01-29T22:11:09.865Z,2.40
2023-01-29T22:13:36.818Z,2.40
2023-01-29T22:16:04.713Z,2.40
2023-01-29T22:18:31.811Z,2.40
2023-01-29T22:20:58.734Z,2.40
2023-01-29T22:23:25.514Z,2.40
2023-01-29T22:25:52.315Z,2.50
2023-01-29T22:28:19.145Z,2.40
2023-01-29T22:30:46.111Z,2.50
2023-01-29T22:33:13.198Z,2.50
2023-01-29T22:35:40.083Z,2.50
2023-01-29T22:38:07.436Z,2.50
2023-01-29T22:40:34.398Z,2.50
2023-01-29T22:43:01.347Z,2.50
2023-01-29T22:45:28.351Z,2.60
2023-01-29T22:47:55.391Z,2.60
2023-01-29T22:50:22.245Z,2.60
2023-01-29T22:52:54.027Z,2.60
2023-01-29T22:55:21.238Z,2.60
2023-01-29T22:57:53.544Z,2.60
2023-01-29T23:00:20.725Z,2.60
2023-01-29T23:02:48.267Z,2.60
2023-01-29T23:05:15.163Z,2.60
2023-01-29T23:07:42.014Z,2.60
2023-01-29T23:10:13.111Z,2.60
2023-01-29T23:12:40.085Z,2.60
2023-01-29T23:15:07.518Z,2.60
2023-01-29T23:17:34.667Z,2.60
2023-01-29T23:20:01.492Z,2.60
2023-01-29T23:22:28.339Z,2.60
2023-01-29T23:24:56.309Z,2.60
2023-01-29T23:27:23.124Z,2.70
2023-01-29T23:29:49.964Z,2.70
2023-01-29T23:32:21.180Z,2.60
2023-01-29T23:34:47.964Z,2.70
2023-01-29T23:37:14.812Z,2.80
2023-01-29T23:39:41.617Z,2.80
2023-01-29T23:42:08.542Z,2.80
2023-01-29T23:44:35.930Z,2.90
2023-01-29T23:47:02.767Z,2.80
2023-01-29T23:49:29.624Z,2.80
2023-01-29T23:51:56.355Z,2.90
2023-01-29T23:54:23.167Z,2.90
2023-01-29T23:56:49.913Z,3.00
2023-01-29T23:59:17.167Z,3.00
